createdAt,value
2023-04-28T00:00:32.998Z,8.04
2023-04-28T00:02:04.356Z,7.76
2023-04-28T00:03:35.801Z,8.05
2023-04-28T00:05:07.493Z,7.76
2023-04-28T00:06:39.227Z,8.03
2023-04-28T00:08:10.710Z,8.09
2023-04-28T00:09:42.109Z,8.14
2023-04-28T00:11:13.659Z,8.33
2023-04-28T00:12:45.033Z,8.14
2023-04-28T00:14:16.795Z,8.18
2023-04-28T00:15:48.691Z,8.35
2023-04-28T00:17:30.467Z,8.55
2023-04-28T00:19:19.219Z,8.27
2023-04-28T00:20:51.400Z,8.83
2023-04-28T00:22:42.833Z,8.12
2023-04-28T00:24:14.391Z,8.08
2023-04-28T00:25:47.032Z,7.97
2023-04-28T00:27:18.507Z,8.11
2023-04-28T00:28:49.926Z,8.16
2023-04-28T00:30:21.231Z,8.04
2023-04-28T00:31:52.824Z,8.01
2023-04-28T00:33:24.343Z,8.04
2023-04-28T00:34:55.765Z,8.24
2023-04-28T00:36:27.057Z,8.10
2023-04-28T00:37:58.339Z,8.49
2023-04-28T00:39:29.620Z,8.28
2023-04-28T00:41:00.889Z,8.37
2023-04-28T00:42:32.245Z,8.37
2023-04-28T00:44:03.481Z,8.06
2023-04-28T00:45:34.801Z,8.31
2023-04-28T00:47:06.112Z,8.40
2023-04-28T00:48:37.362Z,8.23
2023-04-28T00:50:13.647Z,8.63
2023-04-28T00:51:45.025Z,8.27
2023-04-28T00:53:26.174Z,8.27
2023-04-28T00:54:57.551Z,8.11
2023-04-28T00:56:38.848Z,8.33
2023-04-28T00:58:10.273Z,8.53
2023-04-28T00:59:42.165Z,8.44
2023-04-28T01:01:13.734Z,8.34
2023-04-28T01:02:45.243Z,7.98
2023-04-28T01:04:17.189Z,8.67
2023-04-28T01:05:48.790Z,8.97
2023-04-28T01:07:20.085Z,9.11
2023-04-28T01:08:51.666Z,9.87
2023-04-28T01:10:23.219Z,9.56
2023-04-28T01:11:54.590Z,9.95
2023-04-28T01:13:26.032Z,10.20
2023-04-28T01:14:57.420Z,9.61
2023-04-28T01:16:28.857Z,9.56
2023-04-28T01:18:00.303Z,9.21
2023-04-28T01:19:31.554Z,9.46
2023-04-28T01:21:02.811Z,9.36
2023-04-28T01:22:34.050Z,9.10
2023-04-28T01:24:05.300Z,9.21
2023-04-28T01:25:36.957Z,9.70
2023-04-28T01:27:08.180Z,9.58
2023-04-28T01:28:40.902Z,9.37
2023-04-28T01:30:12.337Z,9.38
2023-04-28T01:31:43.850Z,9.00
2023-04-28T01:33:16.660Z,9.14
2023-04-28T01:34:48.473Z,9.21
2023-04-28T01:36:19.985Z,9.01
2023-04-28T01:37:51.299Z,9.26
2023-04-28T01:39:36.810Z,9.50
2023-04-28T01:41:08.200Z,9.29
2023-04-28T01:42:39.864Z,9.62
2023-04-28T01:44:11.091Z,9.93
2023-04-28T01:45:42.505Z,9.53
2023-04-28T01:47:13.949Z,9.69
2023-04-28T01:48:45.348Z,9.85
2023-04-28T01:50:16.743Z,9.79
2023-04-28T01:51:48.009Z,9.72
2023-04-28T01:53:19.453Z,10.22
2023-04-28T01:54:50.796Z,10.57
2023-04-28T01:56:22.086Z,10.11
2023-04-28T01:57:53.891Z,10.28
2023-04-28T01:59:25.157Z,9.90
2023-04-28T02:00:56.507Z,10.11
2023-04-28T02:02:28.210Z,10.03
2023-04-28T02:03:59.818Z,9.93
2023-04-28T02:05:31.375Z,10.05
2023-04-28T02:07:02.656Z,9.89
2023-04-28T02:08:34.020Z,8.94
2023-04-28T02:10:05.292Z,8.56
2023-04-28T02:11:36.926Z,9.00
2023-04-28T02:13:08.255Z,8.97
2023-04-28T02:14:39.522Z,9.21
2023-04-28T02:16:10.860Z,8.86
2023-04-28T02:17:42.159Z,8.38
2023-04-28T02:19:13.787Z,9.05
2023-04-28T02:20:45.047Z,9.36
2023-04-28T02:22:16.461Z,8.79
2023-04-28T02:23:47.868Z,8.96
2023-04-28T02:25:19.138Z,9.20
2023-04-28T02:26:50.401Z,9.27
2023-04-28T02:28:21.922Z,8.73
2023-04-28T02:29:53.204Z,8.49
2023-04-28T02:31:24.534Z,8.91
2023-04-28T02:32:55.892Z,8.80
2023-04-28T02:34:27.190Z,8.68
2023-04-28T02:35:58.669Z,8.90
2023-04-28T02:37:30.111Z,9.13
2023-04-28T02:39:01.489Z,9.13
2023-04-28T02:40:32.982Z,9.29
2023-04-28T02:42:04.205Z,9.03
2023-04-28T02:43:35.466Z,9.23
2023-04-28T02:45:06.706Z,9.39
2023-04-28T02:46:43.027Z,9.56
2023-04-28T02:48:14.270Z,9.53
2023-04-28T02:49:45.546Z,9.49
2023-04-28T02:51:16.980Z,9.51
2023-04-28T02:52:49.063Z,9.42
2023-04-28T02:54:20.586Z,9.59
2023-04-28T02:55:52.016Z,9.95
2023-04-28T02:57:23.355Z,9.53
2023-04-28T02:58:54.601Z,9.59
2023-04-28T03:00:30.913Z,9.61
2023-04-28T03:02:02.324Z,9.67
2023-04-28T03:03:34.241Z,9.29
2023-04-28T03:05:05.636Z,9.16
2023-04-28T03:06:37.064Z,9.30
2023-04-28T03:08:08.423Z,9.19
2023-04-28T03:09:42.158Z,9.26
2023-04-28T03:11:13.888Z,9.34
2023-04-28T03:12:45.263Z,9.16
2023-04-28T03:14:16.975Z,9.24
2023-04-28T03:15:48.442Z,9.19
2023-04-28T03:17:19.785Z,9.10
2023-04-28T03:18:51.540Z,9.14
2023-04-28T03:20:22.947Z,9.52
2023-04-28T03:21:54.361Z,9.35
2023-04-28T03:23:25.690Z,9.26
2023-04-28T03:24:56.942Z,9.29
2023-04-28T03:26:28.234Z,9.46
2023-04-28T03:27:59.816Z,9.24
2023-04-28T03:29:31.085Z,9.16
2023-04-28T03:31:02.331Z,9.54
2023-04-28T03:32:38.896Z,9.69
2023-04-28T03:34:10.433Z,9.74
2023-04-28T03:35:41.690Z,9.72
2023-04-28T03:37:13.049Z,9.95
2023-04-28T03:38:44.365Z,9.87
2023-04-28T03:40:15.625Z,9.58
2023-04-28T03:41:46.969Z,9.56
2023-04-28T03:43:18.237Z,9.70
2023-04-28T03:44:49.550Z,10.10
2023-04-28T03:46:20.981Z,10.35
2023-04-28T03:47:52.385Z,10.59
2023-04-28T03:49:23.751Z,10.49
2023-04-28T03:50:55.029Z,10.25
2023-04-28T03:52:26.399Z,10.29
2023-04-28T03:53:57.934Z,10.44
2023-04-28T03:55:29.208Z,10.68
2023-04-28T03:57:00.446Z,10.82
2023-04-28T03:58:31.798Z,10.40
2023-04-28T04:00:03.332Z,10.62
2023-04-28T04:01:34.702Z,10.42
2023-04-28T04:03:06.034Z,10.22
2023-04-28T04:04:37.824Z,10.65
2023-04-28T04:06:09.243Z,10.29
2023-04-28T04:07:40.711Z,10.25
2023-04-28T04:09:12.137Z,10.70
2023-04-28T04:10:43.414Z,10.40
2023-04-28T04:12:14.691Z,10.33
2023-04-28T04:13:46.036Z,10.11
2023-04-28T04:15:17.350Z,9.95
2023-04-28T04:16:48.727Z,9.82
2023-04-28T04:18:20.139Z,9.88
2023-04-28T04:19:51.397Z,9.69
2023-04-28T04:21:22.687Z,9.76
2023-04-28T04:22:54.279Z,9.23
2023-04-28T04:24:25.626Z,9.07
2023-04-28T04:25:56.977Z,8.67
2023-04-28T04:27:28.328Z,9.13
2023-04-28T04:29:00.019Z,9.54
2023-04-28T04:30:31.322Z,9.44
2023-04-28T04:32:02.538Z,9.08
2023-04-28T04:33:33.987Z,8.71
2023-04-28T04:35:05.239Z,8.44
2023-04-28T04:36:36.506Z,8.15
2023-04-28T04:38:07.811Z,7.86
2023-04-28T04:39:39.067Z,7.68
2023-04-28T04:41:10.294Z,7.83
2023-04-28T04:42:41.553Z,7.77
2023-04-28T04:44:14.233Z,7.75
2023-04-28T04:45:45.748Z,7.80
2023-04-28T04:47:17.158Z,7.74
2023-04-28T04:48:48.527Z,7.65
2023-04-28T04:50:19.858Z,7.78
2023-04-28T04:51:51.231Z,7.54
2023-04-28T04:53:23.779Z,7.83
2023-04-28T04:54:55.090Z,7.78
2023-04-28T04:56:26.375Z,7.69
2023-04-28T04:57:57.828Z,7.61
2023-04-28T04:59:29.105Z,7.25
2023-04-28T05:01:00.440Z,7.52
2023-04-28T05:02:31.781Z,7.48
2023-04-28T05:04:03.469Z,7.44
2023-04-28T05:05:34.894Z,7.51
2023-04-28T05:07:06.366Z,7.60
2023-04-28T05:08:37.882Z,7.26
2023-04-28T05:10:09.113Z,7.30
2023-04-28T05:11:40.395Z,7.00
2023-04-28T05:13:11.648Z,7.50
2023-04-28T05:14:43.205Z,7.17
2023-04-28T05:16:14.770Z,7.49
2023-04-28T05:17:46.256Z,7.63
2023-04-28T05:19:17.652Z,7.50
2023-04-28T05:20:49.230Z,7.81
2023-04-28T05:22:44.262Z,7.76
2023-04-28T05:24:16.025Z,7.63
2023-04-28T05:25:47.512Z,8.16
2023-04-28T05:27:18.804Z,8.02
2023-04-28T05:28:50.227Z,8.37
2023-04-28T05:30:21.802Z,8.44
2023-04-28T05:31:53.178Z,8.64
2023-04-28T05:33:24.608Z,8.95
2023-04-28T05:34:55.964Z,9.02
2023-04-28T05:36:27.318Z,9.15
2023-04-28T05:37:59.771Z,9.49
2023-04-28T05:39:31.152Z,9.54
2023-04-28T05:41:02.632Z,9.66
2023-04-28T05:42:34.167Z,9.77
2023-04-28T05:44:06.038Z,10.13
2023-04-28T05:45:37.821Z,10.14
2023-04-28T05:47:09.138Z,9.94
2023-04-28T05:48:40.437Z,10.66
2023-04-28T05:50:11.887Z,10.73
2023-04-28T05:51:44.553Z,10.71
2023-04-28T05:53:15.834Z,10.32
2023-04-28T05:54:47.228Z,10.88
2023-04-28T05:56:18.944Z,10.87
2023-04-28T05:57:53.475Z,10.67
2023-04-28T05:59:25.079Z,10.82
2023-04-28T06:00:56.486Z,11.00
2023-04-28T06:02:28.141Z,11.04
2023-04-28T06:03:59.855Z,10.47
2023-04-28T06:05:31.952Z,10.49
2023-04-28T06:07:03.584Z,10.28
2023-04-28T06:08:34.829Z,9.83
2023-04-28T06:10:06.096Z,9.99
2023-04-28T06:11:37.388Z,9.17
2023-04-28T06:13:08.712Z,9.52
2023-04-28T06:14:39.987Z,8.86
2023-04-28T06:16:11.420Z,9.00
2023-04-28T06:17:42.945Z,9.02
2023-04-28T06:19:14.248Z,9.11
2023-04-28T06:20:45.506Z,8.82
2023-04-28T06:22:16.883Z,8.69
2023-04-28T06:23:48.510Z,8.31
2023-04-28T06:25:21.585Z,8.12
2023-04-28T06:26:52.963Z,7.82
2023-04-28T06:28:25.534Z,8.04
2023-04-28T06:29:57.112Z,8.07
2023-04-28T06:31:28.548Z,7.62
2023-04-28T06:32:59.921Z,7.48
2023-04-28T06:34:31.255Z,7.24
2023-04-28T06:36:02.800Z,7.36
2023-04-28T06:37:34.641Z,7.25
2023-04-28T06:39:05.894Z,7.25
2023-04-28T06:40:37.201Z,7.08
2023-04-28T06:42:08.796Z,7.16
2023-04-28T06:43:40.166Z,7.42
2023-04-28T06:45:11.446Z,7.28
2023-04-28T06:46:42.855Z,7.29
2023-04-28T06:48:14.200Z,7.45
2023-04-28T06:49:45.922Z,7.38
2023-04-28T06:51:17.274Z,7.00
2023-04-28T06:52:48.623Z,7.41
2023-04-28T06:54:20.076Z,7.09
2023-04-28T06:55:51.639Z,7.22
2023-04-28T06:57:28.016Z,7.24
2023-04-28T06:58:59.268Z,7.46
2023-04-28T07:00:30.609Z,7.06
2023-04-28T07:02:02.161Z,7.49
2023-04-28T07:03:33.643Z,7.39
2023-04-28T07:05:05.094Z,7.33
2023-04-28T07:06:36.453Z,7.16
2023-04-28T07:08:07.826Z,6.93
2023-04-28T07:09:39.674Z,7.02
2023-04-28T07:11:11.097Z,6.80
2023-04-28T07:12:42.536Z,6.85
2023-04-28T07:14:13.950Z,6.94
2023-04-28T07:15:45.626Z,6.84
2023-04-28T07:17:16.972Z,6.90
2023-04-28T07:18:53.299Z,6.75
2023-04-28T07:20:25.268Z,7.01
2023-04-28T07:21:56.665Z,7.18
2023-04-28T07:23:28.064Z,6.88
2023-04-28T07:24:59.499Z,7.01
2023-04-28T07:26:31.009Z,6.97
2023-04-28T07:28:02.552Z,6.95
2023-04-28T07:29:33.909Z,7.08
2023-04-28T07:31:05.243Z,7.04
2023-04-28T07:32:54.055Z,7.12
2023-04-28T07:34:25.466Z,7.21
2023-04-28T07:35:57.193Z,7.37
2023-04-28T07:37:29.410Z,6.93
2023-04-28T07:39:02.154Z,6.99
2023-04-28T07:40:38.686Z,7.20
2023-04-28T07:42:10.148Z,7.18
2023-04-28T07:43:41.476Z,7.03
2023-04-28T07:45:12.746Z,7.42
2023-04-28T07:46:44.188Z,7.40
2023-04-28T07:48:15.685Z,7.56
2023-04-28T07:49:47.066Z,7.49
2023-04-28T07:51:18.371Z,7.12
2023-04-28T07:52:49.698Z,7.50
2023-04-28T07:54:21.014Z,7.46
2023-04-28T07:55:52.604Z,7.51
2023-04-28T07:57:24.393Z,7.47
2023-04-28T07:58:55.755Z,7.22
2023-04-28T08:00:27.159Z,7.34
2023-04-28T08:01:58.483Z,7.51
2023-04-28T08:03:30.058Z,6.93
2023-04-28T08:05:02.349Z,7.03
2023-04-28T08:06:33.968Z,6.49
2023-04-28T08:08:05.368Z,6.92
2023-04-28T08:09:36.914Z,6.47
2023-04-28T08:11:08.384Z,6.44
2023-04-28T08:12:39.713Z,6.78
2023-04-28T08:14:11.214Z,6.19
2023-04-28T08:15:42.584Z,6.16
2023-04-28T08:17:13.998Z,6.68
2023-04-28T08:18:45.402Z,6.34
2023-04-28T08:20:16.980Z,6.36
2023-04-28T08:21:48.508Z,5.99
2023-04-28T08:23:19.815Z,6.08
2023-04-28T08:24:52.389Z,6.10
2023-04-28T08:26:23.831Z,6.23
2023-04-28T08:27:56.845Z,6.42
2023-04-28T08:29:28.743Z,5.80
2023-04-28T08:31:00.346Z,5.47
2023-04-28T08:32:31.876Z,5.14
2023-04-28T08:34:03.544Z,5.09
2023-04-28T08:35:34.949Z,5.17
2023-04-28T08:37:06.314Z,5.10
2023-04-28T08:38:37.705Z,4.88
2023-04-28T08:40:09.061Z,5.08
2023-04-28T08:41:40.419Z,5.11
2023-04-28T08:43:11.807Z,5.32
2023-04-28T08:44:43.375Z,5.37
2023-04-28T08:46:14.965Z,5.70
2023-04-28T08:47:46.581Z,5.12
2023-04-28T08:49:18.146Z,5.51
2023-04-28T08:50:49.626Z,5.35
2023-04-28T08:52:22.170Z,5.08
2023-04-28T08:55:28.006Z,4.98
2023-04-28T08:56:59.514Z,4.96
2023-04-28T08:58:30.899Z,4.93
2023-04-28T09:01:53.368Z,5.00
2023-04-28T09:03:24.920Z,4.90
2023-04-28T09:04:57.134Z,4.92
2023-04-28T09:06:29.083Z,4.85
2023-04-28T09:08:00.568Z,4.70
2023-04-28T09:09:35.059Z,5.10
2023-04-28T09:11:08.531Z,4.68
2023-04-28T09:12:39.871Z,4.78
2023-04-28T09:14:11.160Z,4.99
2023-04-28T09:15:42.714Z,5.23
2023-04-28T09:17:14.014Z,5.16
2023-04-28T09:18:45.370Z,4.96
2023-04-28T09:20:16.704Z,5.33
2023-04-28T09:21:48.243Z,5.34
2023-04-28T09:23:19.671Z,5.09
2023-04-28T09:24:51.040Z,5.23
2023-04-28T09:26:22.483Z,4.76
2023-04-28T09:27:53.809Z,4.94
2023-04-28T09:29:25.105Z,5.27
2023-04-28T09:30:56.511Z,5.16
2023-04-28T09:32:28.512Z,5.40
2023-04-28T09:34:00.449Z,5.57
2023-04-28T09:35:31.878Z,5.70
2023-04-28T09:37:03.305Z,5.80
2023-04-28T09:38:34.839Z,5.93
2023-04-28T09:40:06.293Z,5.18
2023-04-28T09:41:42.762Z,5.20
2023-04-28T09:43:21.290Z,5.27
2023-04-28T09:44:53.196Z,4.83
2023-04-28T09:46:24.600Z,5.13
2023-04-28T09:47:56.056Z,5.19
2023-04-28T09:49:27.452Z,5.15
2023-04-28T09:50:58.884Z,4.84
2023-04-28T09:52:30.301Z,4.95
2023-04-28T09:54:01.669Z,4.92
2023-04-28T09:55:33.265Z,4.93
2023-04-28T09:57:04.924Z,5.27
2023-04-28T09:58:37.627Z,5.05
2023-04-28T10:00:09.348Z,5.03
2023-04-28T10:01:41.069Z,5.03
2023-04-28T10:03:12.670Z,4.94
2023-04-28T10:04:44.646Z,5.01
2023-04-28T10:06:16.657Z,5.06
2023-04-28T10:07:48.062Z,5.16
2023-04-28T10:09:19.639Z,5.10
2023-04-28T10:10:51.023Z,5.18
2023-04-28T10:12:22.360Z,5.24
2023-04-28T10:13:54.041Z,5.60
2023-04-28T10:15:25.452Z,5.19
2023-04-28T10:16:56.802Z,4.99
2023-04-28T10:18:28.199Z,4.90
2023-04-28T10:19:59.625Z,4.51
2023-04-28T10:21:31.080Z,4.99
2023-04-28T10:23:02.400Z,4.96
2023-04-28T10:24:33.845Z,4.64
2023-04-28T10:26:05.211Z,4.98
2023-04-28T10:27:37.297Z,4.71
2023-04-28T10:29:08.645Z,4.56
2023-04-28T10:30:41.118Z,4.41
2023-04-28T10:32:12.434Z,4.26
2023-04-28T10:33:43.833Z,4.84
2023-04-28T10:35:15.176Z,4.74
2023-04-28T10:36:46.626Z,4.39
2023-04-28T10:38:18.077Z,4.89
2023-04-28T10:39:49.605Z,4.43
2023-04-28T10:41:21.024Z,4.03
2023-04-28T10:42:52.427Z,3.92
2023-04-28T10:44:23.897Z,3.63
2023-04-28T10:45:57.050Z,3.59
2023-04-28T10:47:29.452Z,4.19
2023-04-28T10:49:00.864Z,4.53
2023-04-28T10:50:39.204Z,4.43
2023-04-28T10:52:10.972Z,4.47
2023-04-28T10:53:42.357Z,4.89
2023-04-28T10:55:22.182Z,5.05
2023-04-28T10:56:54.098Z,4.69
2023-04-28T10:58:25.475Z,5.03
2023-04-28T10:59:57.049Z,4.99
2023-04-28T11:01:28.474Z,5.06
2023-04-28T11:03:00.188Z,5.42
2023-04-28T11:04:31.885Z,5.31
2023-04-28T11:06:03.294Z,5.45
2023-04-28T11:07:34.658Z,5.19
2023-04-28T11:09:06.259Z,4.94
2023-04-28T11:10:37.706Z,4.79
2023-04-28T11:12:09.291Z,5.35
2023-04-28T11:13:42.709Z,5.34
2023-04-28T11:15:14.087Z,4.94
2023-04-28T11:16:45.520Z,5.59
2023-04-28T11:18:16.888Z,5.28
2023-04-28T11:19:48.287Z,5.25
2023-04-28T11:21:19.782Z,5.22
2023-04-28T11:22:51.210Z,5.06
2023-04-28T11:24:22.560Z,5.07
2023-04-28T11:25:55.319Z,5.09
2023-04-28T11:27:26.800Z,4.93
2023-04-28T11:28:58.110Z,4.85
2023-04-28T11:30:29.469Z,5.44
2023-04-28T11:32:00.928Z,5.48
2023-04-28T11:33:32.269Z,5.52
2023-04-28T11:35:03.884Z,5.72
2023-04-28T11:36:35.214Z,5.44
2023-04-28T11:38:06.696Z,5.22
2023-04-28T11:39:38.053Z,5.67
2023-04-28T11:41:09.449Z,5.60
2023-04-28T11:42:40.963Z,5.71
2023-04-28T11:44:12.275Z,5.88
2023-04-28T11:45:43.671Z,5.84
2023-04-28T11:47:15.192Z,5.89
2023-04-28T11:48:46.519Z,6.24
2023-04-28T11:50:17.846Z,6.15
2023-04-28T11:51:49.172Z,6.42
2023-04-28T11:53:22.152Z,6.51
2023-04-28T11:54:54.236Z,6.69
2023-04-28T11:56:25.597Z,6.48
2023-04-28T11:58:02.176Z,6.20
2023-04-28T11:59:33.562Z,7.28
2023-04-28T12:01:05.029Z,7.01
2023-04-28T12:02:36.645Z,6.98
2023-04-28T12:04:08.366Z,6.55
2023-04-28T12:05:40.016Z,6.63
2023-04-28T12:07:11.464Z,6.41
2023-04-28T12:08:42.815Z,6.89
2023-04-28T12:10:14.814Z,6.82
2023-04-28T12:11:46.224Z,7.25
2023-04-28T12:13:17.692Z,6.93
2023-04-28T12:14:49.003Z,7.11
2023-04-28T12:16:20.563Z,7.30
2023-04-28T12:17:52.201Z,7.30
2023-04-28T12:19:23.603Z,7.39
2023-04-28T12:20:55.123Z,7.09
2023-04-28T12:22:26.527Z,7.08
2023-04-28T12:23:58.003Z,7.34
2023-04-28T12:25:29.445Z,6.98
2023-04-28T12:27:00.881Z,7.22
2023-04-28T12:28:32.205Z,7.97
2023-04-28T12:30:03.496Z,6.99
2023-04-28T12:31:35.783Z,8.12
2023-04-28T12:33:07.149Z,8.71
2023-04-28T12:34:38.550Z,8.85
2023-04-28T12:36:10.544Z,8.85
2023-04-28T12:37:41.965Z,7.56
2023-04-28T12:39:13.410Z,7.89
2023-04-28T12:40:44.760Z,8.44
2023-04-28T12:42:16.094Z,7.72
2023-04-28T12:43:47.478Z,8.01
2023-04-28T12:45:18.818Z,8.16
2023-04-28T12:46:50.250Z,8.27
2023-04-28T12:48:21.698Z,8.50
2023-04-28T12:49:53.106Z,8.32
2023-04-28T12:51:26.219Z,7.40
2023-04-28T12:52:57.607Z,7.46
2023-04-28T12:54:28.946Z,7.80
2023-04-28T12:56:00.353Z,8.76
2023-04-28T12:57:31.678Z,8.27
2023-04-28T12:59:02.994Z,8.03
2023-04-28T13:00:34.312Z,8.26
2023-04-28T13:02:05.919Z,8.28
2023-04-28T13:03:39.024Z,8.18
2023-04-28T13:05:11.473Z,7.62
2023-04-28T13:06:42.837Z,8.63
2023-04-28T13:08:14.260Z,9.46
2023-04-28T13:09:45.971Z,9.74
2023-04-28T13:11:22.838Z,9.66
2023-04-28T13:12:54.651Z,9.06
2023-04-28T13:14:25.994Z,9.69
2023-04-28T13:15:57.482Z,9.56
2023-04-28T13:17:29.107Z,10.10
2023-04-28T13:19:00.722Z,10.34
2023-04-28T13:20:32.199Z,9.97
2023-04-28T13:22:03.500Z,10.29
2023-04-28T13:23:34.896Z,9.62
2023-04-28T13:25:06.207Z,9.51
2023-04-28T13:26:37.636Z,9.02
2023-04-28T13:28:09.035Z,8.58
2023-04-28T13:29:40.419Z,8.76
2023-04-28T13:31:11.996Z,9.12
2023-04-28T13:32:43.495Z,9.32
2023-04-28T13:34:15.040Z,9.64
2023-04-28T13:35:47.396Z,8.76
2023-04-28T13:37:18.888Z,9.24
2023-04-28T13:38:55.532Z,9.54
2023-04-28T13:40:26.911Z,9.83
2023-04-28T13:42:03.408Z,9.74
2023-04-28T13:43:35.028Z,9.14
2023-04-28T13:45:06.482Z,8.73
2023-04-28T13:46:38.019Z,8.20
2023-04-28T13:48:09.492Z,7.96
2023-04-28T13:49:41.067Z,8.04
2023-04-28T13:51:12.498Z,7.79
2023-04-28T13:52:43.901Z,7.57
2023-04-28T13:54:15.238Z,7.37
2023-04-28T13:55:48.876Z,6.93
2023-04-28T13:57:21.332Z,7.24
2023-04-28T13:58:52.794Z,7.78
2023-04-28T14:00:24.240Z,7.16
2023-04-28T14:01:55.627Z,7.35
2023-04-28T14:03:27.894Z,7.28
2023-04-28T14:04:59.454Z,7.67
2023-04-28T14:06:32.419Z,7.65
2023-04-28T14:08:06.220Z,7.40
2023-04-28T14:09:37.769Z,7.59
2023-04-28T14:11:09.198Z,7.80
2023-04-28T14:12:41.230Z,7.24
2023-04-28T14:14:12.625Z,7.30
2023-04-28T14:15:51.177Z,7.80
2023-04-28T14:17:29.142Z,7.68
2023-04-28T14:19:00.662Z,7.74
2023-04-28T14:20:32.048Z,7.77
2023-04-28T14:22:03.520Z,7.92
2023-04-28T14:23:39.959Z,8.36
2023-04-28T14:25:11.472Z,8.57
2023-04-28T14:26:42.859Z,8.46
2023-04-28T14:28:19.405Z,8.62
2023-04-28T14:29:51.876Z,8.60
2023-04-28T14:31:33.453Z,8.32
2023-04-28T14:33:10.087Z,7.89
2023-04-28T14:34:51.698Z,8.62
2023-04-28T14:36:23.149Z,8.19
2023-04-28T14:38:00.056Z,8.17
2023-04-28T14:39:31.505Z,8.28
2023-04-28T14:41:03.652Z,8.13
2023-04-28T14:43:00.964Z,8.23
2023-04-28T14:44:32.409Z,8.77
2023-04-28T14:46:03.815Z,8.14
2023-04-28T14:47:35.303Z,9.07
2023-04-28T14:49:06.994Z,8.70
2023-04-28T14:50:38.587Z,9.13
2023-04-28T14:52:09.967Z,9.12
2023-04-28T14:53:41.401Z,8.34
2023-04-28T14:55:12.835Z,7.60
2023-04-28T14:57:01.341Z,7.55
2023-04-28T14:58:32.803Z,7.94
2023-04-28T15:00:04.652Z,7.92
2023-04-28T15:01:36.281Z,8.38
2023-04-28T15:03:12.876Z,8.40
2023-04-28T15:05:09.711Z,8.40
2023-04-28T15:06:41.265Z,8.48
2023-04-28T15:08:12.688Z,8.32
2023-04-28T15:09:44.149Z,8.85
2023-04-28T15:11:15.551Z,8.89
2023-04-28T15:12:51.959Z,8.88
2023-04-28T15:14:23.378Z,8.67
2023-04-28T15:15:55.075Z,9.09
2023-04-28T15:17:26.861Z,8.56
2023-04-28T15:18:58.315Z,8.58
2023-04-28T15:20:30.220Z,8.85
2023-04-28T15:22:01.645Z,9.23
2023-04-28T15:23:33.096Z,9.00
2023-04-28T15:25:09.606Z,9.99
2023-04-28T15:26:40.975Z,8.94
2023-04-28T15:28:12.373Z,8.25
2023-04-28T15:29:43.988Z,7.70
2023-04-28T15:31:15.535Z,8.86
2023-04-28T15:32:47.105Z,7.04
2023-04-28T15:34:18.584Z,7.16
2023-04-28T15:35:50.006Z,7.33
2023-04-28T15:37:21.388Z,7.55
2023-04-28T15:38:52.814Z,7.14
2023-04-28T15:40:24.476Z,7.16
2023-04-28T15:41:55.896Z,6.97
2023-04-28T15:43:32.477Z,7.28
2023-04-28T15:45:04.053Z,7.14
2023-04-28T15:46:35.595Z,7.51
2023-04-28T15:48:07.015Z,8.12
2023-04-28T15:49:38.785Z,9.90
2023-04-28T15:51:10.167Z,11.66
2023-04-28T15:52:41.544Z,12.60
2023-04-28T15:54:12.918Z,12.20
2023-04-28T15:55:44.516Z,12.19
2023-04-28T15:57:15.918Z,11.98
2023-04-28T15:58:47.455Z,11.64
2023-04-28T16:00:18.922Z,11.80
2023-04-28T16:01:50.493Z,11.37
2023-04-28T16:03:21.999Z,10.80
2023-04-28T16:05:00.136Z,10.12
2023-04-28T16:06:31.489Z,9.30
2023-04-28T16:08:42.233Z,9.14
2023-04-28T16:10:15.344Z,7.51
2023-04-28T16:12:10.801Z,7.32
2023-04-28T16:13:54.279Z,9.16
2023-04-28T16:15:45.365Z,9.83
2023-04-28T16:17:49.422Z,8.96
2023-04-28T16:19:21.259Z,7.60
2023-04-28T16:20:52.811Z,6.41
2023-04-28T16:22:24.614Z,6.33
2023-04-28T16:23:56.320Z,6.21
2023-04-28T16:25:40.823Z,6.59
2023-04-28T16:27:14.278Z,7.22
2023-04-28T16:28:46.319Z,7.94
2023-04-28T16:30:18.940Z,8.62
2023-04-28T16:31:50.506Z,10.67
2023-04-28T16:33:46.443Z,10.99
2023-04-28T16:35:32.579Z,9.68
2023-04-28T16:37:14.877Z,9.40
2023-04-28T16:38:52.590Z,8.76
2023-04-28T16:40:24.266Z,8.41
2023-04-28T16:41:56.010Z,6.74
2023-04-28T16:43:44.593Z,7.51
2023-04-28T16:45:16.151Z,7.29
2023-04-28T16:46:47.617Z,7.21
2023-04-28T16:48:20.045Z,7.46
2023-04-28T16:50:33.108Z,7.28
2023-04-28T16:52:04.768Z,6.52
2023-04-28T16:53:46.418Z,6.30
2023-04-28T16:55:27.915Z,6.21
2023-04-28T16:56:59.466Z,6.35
2023-04-28T16:58:42.319Z,6.28
2023-04-28T17:00:14.015Z,5.96
2023-04-28T17:01:45.721Z,6.08
2023-04-28T17:03:17.360Z,6.57
2023-04-28T17:04:49.123Z,6.54
2023-04-28T17:06:21.023Z,6.29
2023-04-28T17:07:52.487Z,6.21
2023-04-28T17:09:25.012Z,6.06
2023-04-28T17:10:56.468Z,6.28
2023-04-28T17:12:51.287Z,6.12
2023-04-28T17:14:23.649Z,6.29
2023-04-28T17:16:06.817Z,6.17
2023-04-28T17:17:38.431Z,6.53
2023-04-28T17:19:11.019Z,6.29
2023-04-28T17:21:06.903Z,6.76
2023-04-28T17:22:38.408Z,7.53
2023-04-28T17:24:09.923Z,7.32
2023-04-28T17:25:46.256Z,7.08
2023-04-28T17:27:34.324Z,6.91
2023-04-28T17:29:15.673Z,6.73
2023-04-28T17:31:06.983Z,6.87
2023-04-28T17:32:39.378Z,6.89
2023-04-28T17:34:22.426Z,6.90
2023-04-28T17:35:59.086Z,6.22
2023-04-28T17:37:46.898Z,5.34
2023-04-28T17:39:23.337Z,5.26
2023-04-28T17:41:12.765Z,5.82
2023-04-28T17:42:44.201Z,5.90
2023-04-28T17:44:25.940Z,5.43
2023-04-28T17:46:28.676Z,4.78
2023-04-28T17:48:25.683Z,3.94
2023-04-28T17:50:29.235Z,4.79
2023-04-28T17:52:12.682Z,6.11
2023-04-28T17:53:44.148Z,6.38
2023-04-28T17:55:15.519Z,6.26
2023-04-28T17:56:46.978Z,5.85
2023-04-28T17:58:18.877Z,6.23
2023-04-28T17:59:50.398Z,5.55
2023-04-28T18:01:22.001Z,6.12
2023-04-28T18:02:53.720Z,6.30
2023-04-28T18:04:25.268Z,6.23
2023-04-28T18:05:56.633Z,6.71
2023-04-28T18:07:28.122Z,7.70
2023-04-28T18:09:00.002Z,7.29
2023-04-28T18:10:46.900Z,7.37
2023-04-28T18:12:18.342Z,7.51
2023-04-28T18:13:49.733Z,7.47
2023-04-28T18:15:21.061Z,6.99
2023-04-28T18:16:52.566Z,7.02
2023-04-28T18:18:24.263Z,6.97
2023-04-28T18:19:56.004Z,7.55
2023-04-28T18:21:27.344Z,7.66
2023-04-28T18:22:58.722Z,7.10
2023-04-28T18:24:30.042Z,7.29
2023-04-28T18:26:01.431Z,7.23
2023-04-28T18:27:32.866Z,7.48
2023-04-28T18:29:04.198Z,7.56
2023-04-28T18:30:52.846Z,7.56
2023-04-28T18:32:24.280Z,7.40
2023-04-28T18:33:56.176Z,7.27
2023-04-28T18:35:27.593Z,7.39
2023-04-28T18:36:59.366Z,7.68
2023-04-28T18:38:30.889Z,7.31
2023-04-28T18:40:02.327Z,7.62
2023-04-28T18:41:33.635Z,7.85
2023-04-28T18:43:05.083Z,8.23
2023-04-28T18:44:36.508Z,7.59
2023-04-28T18:46:08.352Z,7.85
2023-04-28T18:47:39.811Z,7.92
2023-04-28T18:49:11.402Z,7.36
2023-04-28T18:50:42.789Z,8.31
2023-04-28T18:52:14.130Z,8.35
2023-04-28T18:53:45.498Z,9.19
2023-04-28T18:55:16.884Z,9.10
2023-04-28T18:56:50.033Z,9.16
2023-04-28T18:58:21.334Z,9.57
2023-04-28T18:59:52.732Z,9.76
2023-04-28T19:01:24.359Z,9.91
2023-04-28T19:02:56.030Z,10.46
2023-04-28T19:04:27.598Z,10.71
2023-04-28T19:05:59.025Z,10.43
2023-04-28T19:07:30.325Z,10.57
2023-04-28T19:09:02.684Z,11.56
2023-04-28T19:10:34.093Z,11.45
2023-04-28T19:12:05.439Z,11.56
2023-04-28T19:13:36.834Z,11.72
2023-04-28T19:15:08.203Z,11.27
2023-04-28T19:16:39.730Z,11.06
2023-04-28T19:18:11.221Z,11.03
2023-04-28T19:19:42.637Z,10.40
2023-04-28T19:21:13.991Z,11.22
2023-04-28T19:22:45.319Z,11.16
2023-04-28T19:24:16.770Z,11.23
2023-04-28T19:25:48.147Z,11.54
2023-04-28T19:27:19.523Z,11.71
2023-04-28T19:28:50.824Z,11.33
2023-04-28T19:30:22.717Z,11.72
2023-04-28T19:31:54.082Z,11.54
2023-04-28T19:33:27.735Z,12.12
2023-04-28T19:34:59.767Z,11.66
2023-04-28T19:36:31.127Z,12.52
2023-04-28T19:38:02.399Z,13.52
2023-04-28T19:39:33.787Z,12.68
2023-04-28T19:41:05.348Z,13.31
2023-04-28T19:42:36.763Z,13.80
2023-04-28T19:44:08.130Z,13.58
2023-04-28T19:45:40.753Z,13.22
2023-04-28T19:47:12.121Z,13.65
2023-04-28T19:48:43.494Z,13.42
2023-04-28T19:50:14.788Z,13.22
2023-04-28T19:51:46.397Z,12.64
2023-04-28T19:53:17.899Z,13.01
2023-04-28T19:54:49.327Z,12.90
2023-04-28T19:56:20.628Z,12.45
2023-04-28T19:57:51.913Z,12.80
2023-04-28T19:59:51.847Z,12.95
2023-04-28T20:01:23.908Z,12.95
2023-04-28T20:02:56.060Z,12.94
2023-04-28T20:04:27.608Z,12.67
2023-04-28T20:05:59.372Z,12.77
2023-04-28T20:07:30.684Z,13.25
2023-04-28T20:09:01.939Z,12.94
2023-04-28T20:10:33.240Z,12.95
2023-04-28T20:12:04.478Z,13.66
2023-04-28T20:13:35.904Z,14.04
2023-04-28T20:15:07.209Z,14.81
2023-04-28T20:16:38.557Z,15.26
2023-04-28T20:18:09.871Z,16.17
2023-04-28T20:19:41.299Z,14.65
2023-04-28T20:21:17.682Z,15.62
2023-04-28T20:22:49.154Z,16.69
2023-04-28T20:24:20.449Z,15.90
2023-04-28T20:25:51.792Z,16.17
2023-04-28T20:27:23.401Z,16.44
2023-04-28T20:28:55.091Z,16.24
2023-04-28T20:30:26.633Z,16.46
2023-04-28T20:31:58.092Z,16.86